METAR Data
IDs: Format: Raw Decoded Include TAF

Data at: 2142 UTC 08 Aug 2020

CYVR 082100Z 29013G18KT 20SM FEW033 SCT075 SCT230 SCT250 20/14 A3020 RMK CU2AC1CC1CI1 CC TR TCU ASOCTD E CONTRAILS SLP227 DENSITY ALT 300FT

TAF CYVR 082038Z 0821/0924 28012KT P6SM FEW015 SCT030 BKN060
  TEMPO 0821/0824 SCT060
  FM090000 28012G22KT P6SM FEW050 SCT240
  FM090900 VRB03KT P6SM SCT015 BKN025
  TEMPO 0909/0918 BKN015
  FM091800 29008KT P6SM SCT040 RMK NXT FCST BY 090000Z